Terminal Aerodrome Forecast
Issued by NWS

Home | Current Version | Previous Version | Text Only | Print | Product List | Glossary On
Versions: 1 2 3 4 5 6 7 8 9 10 11 12 13 14 15 16 17 18 19
000
FTAK31 PAJN 262300
TAFAGY
TAF
PAGY 262338Z 2700/2724 04018G30KT P6SM SKC
     FM270400 04023G37KT P6SM FEW050
     FM271500 04015G25KT P6SM SCT050
     FM272200 04012G25KT P6SM SCT050
      AMD LTD TO CLD VIS AND WIND=

USA.gov is the U.S. government's official web portal to all federal, state and local government web resources and services.